Time;durP1;ratioP1;P1;durP2;ratioP2;P2;SDS_P1;SDS_P2;PMS_P1;PMS_P2;Temp;Humidity;BMP_temperature;BMP_pressure;BME280_temperature;BME280_humidity;BME280_pressure;Samples;Min_cycle;Max_cycle;Signal;HPM_P1;HPM_P2
2023/10/15 00:01:35;;;;;;;8.07;4.80;;;;;;;15.49;100.00;103884.53;5093451;28;20024;-61
2023/10/15 00:04:02;;;;;;;8.98;5.30;;;;;;;15.45;100.00;103956.31;5093436;28;20035;-61
2023/10/15 00:06:27;;;;;;;6.65;4.90;;;;;;;15.20;100.00;103965.25;5093561;28;20058;-63
2023/10/15 00:08:53;;;;;;;6.72;4.55;;;;;;;15.36;100.00;104008.28;5126212;27;20132;-62
2023/10/15 00:11:20;;;;;;;7.75;4.85;;;;;;;15.24;100.00;104012.31;5093304;28;20173;-62
2023/10/15 00:13:46;;;;;;;7.70;5.15;;;;;;;15.43;100.00;104050.31;5093034;28;20055;-62
2023/10/15 00:16:21;;;;;;;8.93;5.18;;;;;;;15.31;100.00;104050.06;5092397;27;20032;-62
2023/10/15 00:18:47;;;;;;;6.85;4.75;;;;;;;15.45;100.00;104074.31;5093114;28;20035;-62
2023/10/15 00:21:12;;;;;;;8.27;5.30;;;;;;;15.19;100.00;103912.22;5125872;27;20047;-62
2023/10/15 00:23:43;;;;;;;7.00;5.03;;;;;;;15.23;100.00;103901.16;5093089;28;20480;-61
2023/10/15 00:26:12;;;;;;;10.95;5.55;;;;;;;15.09;100.00;103882.16;5092628;28;20032;-62
2023/10/15 00:28:38;;;;;;;8.65;5.72;;;;;;;14.73;100.00;103851.66;5092972;28;20039;-63
2023/10/15 00:31:09;;;;;;;7.68;5.70;;;;;;;15.17;100.00;103959.22;5092851;28;20110;-63
2023/10/15 00:33:35;;;;;;;7.40;5.57;;;;;;;15.24;100.00;104037.94;5092823;28;20031;-62
2023/10/15 00:36:01;;;;;;;8.95;5.57;;;;;;;15.18;100.00;104228.47;5092762;28;20524;-62
2023/10/15 00:38:26;;;;;;;8.10;5.45;;;;;;;15.59;100.00;104773.34;5092783;28;20059;-62
2023/10/15 00:41:07;;;;;;;9.23;5.43;;;;;;;15.35;100.00;104818.81;5090724;28;20039;-63
2023/10/15 00:43:32;;;;;;;9.02;5.22;;;;;;;15.29;100.00;104813.50;5092659;28;20028;-61
2023/10/15 00:46:00;;;;;;;9.10;5.68;;;;;;;14.75;100.00;104738.28;5092732;28;20020;-68
2023/10/15 00:48:33;;;;;;;10.35;5.93;;;;;;;14.82;100.00;104711.16;5092569;28;20032;-62
2023/10/15 00:51:04;;;;;;;10.02;5.75;;;;;;;15.05;100.00;104782.84;5092296;28;20032;-68
2023/10/15 00:53:31;;;;;;;8.80;5.82;;;;;;;14.63;100.00;104705.47;5092394;28;20513;-62
2023/10/15 00:56:04;;;;;;;10.85;5.93;;;;;;;15.11;100.00;104783.03;5092386;28;20032;-62
2023/10/15 00:58:32;;;;;;;8.73;5.78;;;;;;;14.79;100.00;104773.47;5092378;28;20122;-63
2023/10/15 01:03:53;;;;;;;9.05;6.28;;;;;;;14.68;100.00;104923.41;5092352;28;20665;-64
2023/10/15 01:06:30;;;;;;;9.25;5.47;;;;;;;14.89;100.00;104929.31;5092078;28;20040;-62
2023/10/15 01:09:09;;;;;;;7.45;5.63;;;;;;;14.72;100.00;104966.28;5092434;28;20117;-61
2023/10/15 01:11:43;;;;;;;7.80;6.38;;;;;;;14.71;100.00;104998.75;5091973;28;20032;-62
2023/10/15 01:14:10;;;;;;;8.95;5.90;;;;;;;14.27;100.00;104972.25;5091807;28;20043;-63
2023/10/15 01:16:37;;;;;;;10.45;6.00;;;;;;;14.59;100.00;104933.34;5092158;28;20111;-61
2023/10/15 01:21:52;;;;;;;10.05;6.43;;;;;;;14.81;100.00;104925.59;5091810;28;20123;-63
2023/10/15 01:24:22;;;;;;;8.95;5.70;;;;;;;14.29;100.00;104892.16;5091726;28;20169;-62
2023/10/15 01:26:59;;;;;;;8.90;6.00;;;;;;;15.01;100.00;104854.47;5091609;28;20036;-62
2023/10/15 01:29:28;;;;;;;8.75;6.60;;;;;;;14.67;100.00;103694.41;5089590;28;20088;-62
2023/10/15 01:32:03;;;;;;;10.60;6.20;;;;;;;14.84;100.00;103635.72;5092009;28;20032;-61
2023/10/15 01:34:37;;;;;;;9.88;6.30;;;;;;;14.44;100.00;103583.94;5091847;28;20036;-61
2023/10/15 01:37:15;;;;;;;11.98;7.47;;;;;;;14.45;100.00;103577.13;5091440;28;20471;-65
2023/10/15 01:39:45;;;;;;;9.90;6.65;;;;;;;14.89;100.00;103536.69;5091525;28;20039;-62
2023/10/15 01:42:31;;;;;;;11.55;7.30;;;;;;;14.82;100.00;103525.50;5091586;28;20024;-62
2023/10/15 01:50:15;;;;;;;9.75;6.22;;;;;;;14.52;100.00;103384.28;5091370;28;20067;-62
2023/10/15 01:52:43;;;;;;;14.55;6.43;;;;;;;14.20;100.00;103275.53;5092058;28;20028;-61
2023/10/15 01:55:09;;;;;;;7.53;5.32;;;;;;;14.97;100.00;103312.13;5103172;28;20034;-61
2023/10/15 01:57:39;;;;;;;9.18;6.10;;;;;;;14.64;100.00;103302.44;5090359;28;20524;-62
2023/10/15 02:00:13;;;;;;;15.57;6.00;;;;;;;14.94;100.00;103131.03;5090791;28;20039;-62
2023/10/15 02:02:40;;;;;;;9.20;5.68;;;;;;;14.35;100.00;103019.72;5091132;28;20107;-62
2023/10/15 02:05:16;;;;;;;7.47;6.28;;;;;;;14.28;100.00;102979.59;5090870;28;20094;-61
2023/10/15 02:07:42;;;;;;;8.75;6.13;;;;;;;14.16;100.00;102925.75;5091239;28;20494;-60
2023/10/15 02:10:12;;;;;;;8.32;5.88;;;;;;;14.53;100.00;102925.94;5091164;28;20055;-61
2023/10/15 02:12:37;;;;;;;8.55;6.55;;;;;;;13.90;100.00;102854.00;5090577;28;20034;-61
2023/10/15 02:15:13;;;;;;;11.88;6.80;;;;;;;14.13;100.00;102874.53;5094876;28;20045;-61
2023/10/15 02:17:42;;;;;;;13.30;6.75;;;;;;;14.19;100.00;102879.69;5111101;28;20034;-63
2023/10/15 02:20:11;;;;;;;13.50;6.53;;;;;;;13.70;100.00;102873.50;5111175;28;20024;-61
2023/10/15 02:22:38;;;;;;;15.73;6.75;;;;;;;13.42;100.00;102887.78;5109946;28;20032;-62
2023/10/15 02:25:04;;;;;;;9.82;5.93;;;;;;;13.38;100.00;102834.09;5111271;28;20068;-62
2023/10/15 02:27:34;;;;;;;11.02;6.50;;;;;;;13.51;100.00;102899.78;5111381;28;20488;-62
2023/10/15 02:30:00;;;;;;;14.38;7.22;;;;;;;13.19;100.00;102906.34;5111100;28;20110;-62
2023/10/15 02:34:52;;;;;;;11.25;7.07;;;;;;;13.24;100.00;102943.00;5098969;28;20024;-62
2023/10/15 02:37:30;;;;;;;13.65;6.70;;;;;;;13.33;100.00;102946.47;5110527;28;20478;-63
2023/10/15 02:39:57;;;;;;;16.80;7.30;;;;;;;13.33;100.00;102974.59;5110465;28;20027;-61
2023/10/15 02:42:35;;;;;;;10.27;6.70;;;;;;;13.26;100.00;102967.72;5110993;28;20048;-64
2023/10/15 02:45:05;;;;;;;14.10;6.93;;;;;;;14.19;100.00;103115.13;5110993;28;20027;-61
2023/10/15 02:47:31;;;;;;;9.27;6.00;;;;;;;13.98;100.00;103209.63;5110883;28;20486;-60
2023/10/15 02:50:01;;;;;;;9.68;6.38;;;;;;;13.60;100.00;103237.34;5110627;28;20024;-61
2023/10/15 02:52:35;;;;;;;12.18;6.30;;;;;;;13.61;100.00;103191.31;5109776;28;20565;-60
2023/10/15 02:55:07;;;;;;;10.45;6.25;;;;;;;13.86;100.00;103157.47;5106018;28;20043;-63
2023/10/15 02:57:38;;;;;;;;;;;;;;;14.01;100.00;103153.38;5093747;28;20070;-61
2023/10/15 03:00:13;;;;;;;10.30;6.55;;;;;;;13.24;100.00;103063.97;5101084;28;20339;-62
2023/10/15 03:02:43;;;;;;;10.93;6.15;;;;;;;13.49;100.00;103126.44;5108774;28;20024;-70
2023/10/15 03:05:13;;;;;;;11.52;5.90;;;;;;;13.80;100.00;103146.34;5110819;28;20498;-64
2023/10/15 03:07:42;;;;;;;9.98;6.25;;;;;;;13.41;100.00;103126.31;5109590;28;20513;-68
2023/10/15 03:10:13;;;;;;;11.07;6.30;;;;;;;13.98;100.00;103204.53;5110914;28;20028;-62
2023/10/15 03:12:48;;;;;;;11.07;7.20;;;;;;;13.51;100.00;103250.84;5110788;28;20062;-67
2023/10/15 03:15:15;;;;;;;10.95;6.70;;;;;;;13.66;100.00;103263.84;5110207;28;20031;-62
2023/10/15 03:17:42;;;;;;;13.30;6.72;;;;;;;13.56;100.00;103245.81;5096396;28;20028;-62
2023/10/15 03:20:25;;;;;;;11.23;7.45;;;;;;;13.51;100.00;103255.13;5103912;28;20062;-62
2023/10/15 03:22:58;;;;;;;18.95;8.02;;;;;;;12.94;100.00;103187.03;5111069;28;20027;-64
2023/10/15 03:25:24;;;;;;;15.32;7.97;;;;;;;13.65;100.00;103249.34;5110386;28;20052;-63
2023/10/15 03:27:54;;;;;;;12.68;7.05;;;;;;;13.24;100.00;103214.72;5110630;28;20028;-61
2023/10/15 03:30:23;;;;;;;13.40;7.28;;;;;;;13.80;100.00;103280.22;5109290;28;20028;-63
2023/10/15 03:32:49;;;;;;;17.38;7.25;;;;;;;13.64;100.00;103293.66;5110028;28;20038;-62
2023/10/15 03:35:33;;;;;;;14.63;7.00;;;;;;;13.22;100.00;103290.50;5110683;28;20028;-64
2023/10/15 03:38:04;;;;;;;19.30;7.45;;;;;;;13.22;100.00;103253.88;5109530;28;20036;-62
2023/10/15 03:40:31;;;;;;;14.27;7.70;;;;;;;12.88;100.00;103237.16;5110648;28;20119;-62
2023/10/15 03:43:15;;;;;;;12.05;7.65;;;;;;;13.35;100.00;103277.06;5110270;28;20119;-63
2023/10/15 03:45:53;;;;;;;11.63;7.35;;;;;;;13.22;100.00;103282.84;5110463;28;20028;-63
2023/10/15 03:48:27;;;;;;;12.75;7.20;;;;;;;12.85;100.00;103211.59;5110175;28;20039;-63
2023/10/15 03:50:56;;;;;;;12.30;7.60;;;;;;;13.01;100.00;103247.56;5110733;28;20065;-61
2023/10/15 03:53:30;;;;;;;11.25;7.45;;;;;;;12.88;100.00;103203.97;5114394;28;20023;-63
2023/10/15 03:56:00;;;;;;;14.30;8.48;;;;;;;12.67;100.00;103178.97;5113894;28;20415;-63
2023/10/15 03:58:26;;;;;;;15.38;8.80;;;;;;;12.14;100.00;103095.63;5112518;28;20123;-62
2023/10/15 04:01:11;;;;;;;13.90;8.07;;;;;;;12.29;100.00;102968.31;5112647;28;20122;-66
2023/10/15 04:03:36;;;;;;;10.35;7.75;;;;;;;12.12;100.00;102896.63;5114217;28;20027;-62
2023/10/15 04:06:05;;;;;;;10.98;7.63;;;;;;;12.39;100.00;102897.81;5112528;28;20046;-61
2023/10/15 04:08:31;;;;;;;11.05;7.28;;;;;;;12.53;100.00;102799.31;5097120;27;20035;-62
2023/10/15 04:11:00;;;;;;;11.20;7.55;;;;;;;12.58;100.00;102769.56;5093170;28;20028;-62
2023/10/15 04:13:29;;;;;;;10.05;6.97;;;;;;;12.46;100.00;102351.00;5093231;28;20028;-62
2023/10/15 04:15:55;;;;;;;14.10;7.72;;;;;;;12.23;100.00;102311.81;5092597;27;20044;-64
2023/10/15 04:18:25;;;;;;;15.27;7.88;;;;;;;12.16;100.00;102268.44;5092982;28;20055;-62
2023/10/15 04:20:52;;;;;;;11.98;9.18;;;;;;;12.44;100.00;102292.31;5092835;28;20032;-62
2023/10/15 04:23:34;;;;;;;14.32;10.50;;;;;;;12.38;100.00;102263.41;5092907;28;20028;-62
2023/10/15 04:26:14;;;;;;;14.30;10.13;;;;;;;12.22;100.00;102180.06;5091573;28;20039;-61
2023/10/15 04:28:40;;;;;;;14.98;9.98;;;;;;;12.42;100.00;102186.03;5093061;28;20166;-61
2023/10/15 04:31:11;;;;;;;14.18;9.68;;;;;;;12.43;100.00;102167.28;5091755;28;20036;-62
2023/10/15 04:33:41;;;;;;;13.75;9.48;;;;;;;12.49;100.00;102108.63;5093244;28;20028;-62
2023/10/15 04:36:09;;;;;;;13.15;8.73;;;;;;;12.47;100.00;102003.16;5092764;28;20032;-62
2023/10/15 04:38:38;;;;;;;10.18;8.20;;;;;;;12.57;100.00;102012.47;5092348;28;20422;-62
2023/10/15 04:41:03;;;;;;;19.17;9.38;;;;;;;12.36;100.00;101974.28;5092711;28;20112;-68
2023/10/15 04:43:40;;;;;;;13.65;9.25;;;;;;;12.24;100.00;101936.91;5092451;28;20060;-61
2023/10/15 04:46:07;;;;;;;15.45;10.15;;;;;;;12.16;100.00;101857.88;5093089;28;20089;-62
2023/10/15 04:48:36;;;;;;;12.57;8.85;;;;;;;12.53;100.00;101883.22;5092605;28;20036;-61
2023/10/15 04:51:06;;;;;;;12.88;9.30;;;;;;;12.47;100.00;101912.16;5091087;28;20114;-61
2023/10/15 04:53:31;;;;;;;11.95;8.75;;;;;;;12.60;100.00;101923.16;5092724;28;20032;-61
2023/10/15 04:55:58;;;;;;;13.13;8.27;;;;;;;12.36;100.00;101902.88;5092663;28;20024;-61
2023/10/15 04:58:29;;;;;;;10.48;7.30;;;;;;;12.41;100.00;101868.81;5092357;28;20028;-62
2023/10/15 05:00:55;;;;;;;7.88;7.07;;;;;;;12.44;100.00;101866.25;5092738;28;20024;-61
2023/10/15 05:03:23;;;;;;;9.35;6.25;;;;;;;12.35;100.00;101743.88;5091942;28;20100;-62
2023/10/15 05:05:50;;;;;;;8.18;7.10;;;;;;;12.51;100.00;101734.41;5092405;28;20052;-63
2023/10/15 05:08:17;;;;;;;12.85;7.55;;;;;;;12.23;100.00;101647.06;5092374;28;20036;-62
2023/10/15 05:10:50;;;;;;;9.48;7.95;;;;;;;12.32;100.00;101600.22;5092311;28;20179;-62
2023/10/15 05:13:17;;;;;;;15.70;10.55;;;;;;;12.44;100.00;101592.47;5092238;28;20032;-61
2023/10/15 05:15:47;;;;;;;18.58;10.82;;;;;;;12.22;100.00;101635.19;5090586;28;20483;-62
2023/10/15 05:18:13;;;;;;;19.15;13.30;;;;;;;11.96;100.00;101716.91;5091621;28;20070;-61
2023/10/15 05:20:39;;;;;;;15.95;11.13;;;;;;;11.70;100.00;101682.25;5091028;28;20046;-61
2023/10/15 05:23:04;;;;;;;16.75;11.07;;;;;;;12.44;100.00;101799.91;5098811;28;20027;-62
2023/10/15 05:25:30;;;;;;;13.95;10.07;;;;;;;12.39;100.00;101674.13;5112197;28;20057;-62
2023/10/15 05:27:56;;;;;;;15.98;9.65;;;;;;;13.47;100.00;101799.94;5110134;28;20525;-62
2023/10/15 05:30:21;;;;;;;13.88;10.43;;;;;;;14.65;100.00;101922.19;5112170;28;20030;-62
2023/10/15 05:32:50;;;;;;;14.40;10.68;;;;;;;16.19;100.00;102199.41;5111901;28;20066;-61
2023/10/15 05:35:17;;;;;;;22.65;15.90;;;;;;;13.98;100.00;102314.28;5108125;28;20036;-62
2023/10/15 05:37:44;;;;;;;26.45;17.00;;;;;;;14.60;100.00;102305.41;5107785;28;20542;-61
2023/10/15 05:40:12;;;;;;;23.95;16.35;;;;;;;14.60;100.00;102391.63;5110646;28;20518;-62
2023/10/15 05:42:38;;;;;;;42.13;16.73;;;;;;;14.33;100.00;102456.63;5111466;28;20024;-62
2023/10/15 05:45:06;;;;;;;28.58;17.33;;;;;;;13.51;100.00;102462.69;5110403;28;20027;-64
2023/10/15 05:47:33;;;;;;;29.17;17.85;;;;;;;12.78;100.00;102288.09;5109769;28;20767;-62
2023/10/15 05:49:58;;;;;;;33.30;18.90;;;;;;;14.34;100.00;102353.38;5111639;28;20032;-62
2023/10/15 05:52:25;;;;;;;39.00;20.05;;;;;;;14.76;100.00;102337.75;5111472;28;20032;-63
2023/10/15 05:54:53;;;;;;;49.10;21.33;;;;;;;14.86;100.00;102394.88;5110630;28;20128;-66
2023/10/15 05:57:21;;;;;;;35.63;19.48;;;;;;;14.50;100.00;102425.81;5111913;28;20497;-62
2023/10/15 05:59:47;;;;;;;38.22;20.20;;;;;;;14.29;100.00;102387.53;5111525;28;20066;-62
2023/10/15 06:02:13;;;;;;;39.58;17.10;;;;;;;14.39;100.00;102373.81;5111486;28;20031;-60
2023/10/15 06:04:38;;;;;;;31.33;14.23;;;;;;;15.36;100.00;102508.16;5110692;27;20048;-61
2023/10/15 06:07:05;;;;;;;35.88;13.25;;;;;;;15.06;100.00;102566.41;5111085;28;20019;-61
2023/10/15 06:09:31;;;;;;;29.65;11.95;;;;;;;15.16;100.00;102657.78;5109543;28;20118;-61
2023/10/15 06:11:58;;;;;;;22.13;11.13;;;;;;;15.49;100.00;102773.94;5111012;28;20050;-61
2023/10/15 06:14:24;;;;;;;25.95;9.88;;;;;;;15.71;100.00;102784.13;5108955;28;20023;-62
2023/10/15 06:16:52;;;;;;;18.77;10.05;;;;;;;15.12;100.00;102920.94;5111422;28;20407;-64
2023/10/15 06:19:18;;;;;;;13.23;9.13;;;;;;;14.91;100.00;102987.53;5111312;28;20517;-62
2023/10/15 06:21:44;;;;;;;16.58;8.55;;;;;;;15.52;100.00;103302.28;5110579;28;20490;-61
2023/10/15 06:24:10;;;;;;;15.98;8.43;;;;;;;16.34;100.00;103827.41;5109960;27;20038;-61
2023/10/15 06:26:36;;;;;;;12.75;8.23;;;;;;;16.06;100.00;103768.94;5109501;28;20486;-63
2023/10/15 06:29:01;;;;;;;13.73;7.57;;;;;;;16.82;100.00;103850.16;5110323;28;20027;-61
2023/10/15 06:31:28;;;;;;;13.02;8.20;;;;;;;17.37;100.00;103827.44;5110631;28;20027;-62
2023/10/15 06:33:55;;;;;;;13.32;8.60;;;;;;;16.36;100.00;103639.91;5110725;28;20031;-66
2023/10/15 06:36:21;;;;;;;15.82;8.20;;;;;;;17.09;100.00;103669.50;5110651;28;20031;-63
2023/10/15 06:38:47;;;;;;;9.50;8.23;;;;;;;17.55;100.00;103619.09;5110522;28;20476;-62
2023/10/15 06:58:02;;;;;;;15.13;8.45;;;;;;;18.17;100.00;103156.28;5104278;28;20043;-67
2023/10/15 07:00:31;;;;;;;12.25;8.98;;;;;;;18.16;100.00;103078.13;5110276;27;20035;-65
2023/10/15 07:02:56;;;;;;;16.38;8.52;;;;;;;18.81;100.00;102844.56;5105750;28;20028;-66
2023/10/15 07:05:25;;;;;;;13.13;8.20;;;;;;;19.14;100.00;102823.34;5112056;28;20051;-66
2023/10/15 07:07:52;;;;;;;11.35;8.13;;;;;;;18.93;100.00;102780.75;5110076;28;20509;-63
2023/10/15 07:10:18;;;;;;;19.27;8.55;;;;;;;18.77;100.00;102758.66;5106882;27;20032;-62
2023/10/15 07:12:47;;;;;;;12.10;8.45;;;;;;;18.81;100.00;102744.84;5109996;28;20034;-62
2023/10/15 07:15:15;;;;;;;12.40;9.30;;;;;;;17.92;100.00;102720.47;5110007;28;20040;-61
2023/10/15 07:17:41;;;;;;;13.57;10.38;;;;;;;18.81;100.00;102831.66;5109071;28;20031;-61
2023/10/15 07:20:14;;;;;;;15.38;12.80;;;;;;;19.17;100.00;102866.31;5093623;28;20039;-60
2023/10/15 07:22:43;;;;;;;19.63;14.27;;;;;;;19.55;100.00;102879.44;5090027;28;20024;-60
2023/10/15 07:25:10;;;;;;;27.40;24.58;;;;;;;18.57;100.00;102799.38;5089800;28;20036;-60
2023/10/15 07:27:37;;;;;;;19.55;16.60;;;;;;;19.72;100.00;102872.19;5092798;28;20078;-61
2023/10/15 07:30:03;;;;;;;25.67;19.58;;;;;;;19.01;100.00;102832.19;5093687;28;20035;-61
2023/10/15 07:32:29;;;;;;;17.52;15.02;;;;;;;18.97;100.00;102844.28;5093798;28;20099;-61
2023/10/15 07:34:54;;;;;;;13.52;10.73;;;;;;;18.46;100.00;102780.66;5093428;28;20111;-61
2023/10/15 07:37:20;;;;;;;14.93;10.18;;;;;;;19.29;100.00;102837.72;5094065;28;20127;-61
2023/10/15 07:39:45;;;;;;;18.13;14.30;;;;;;;19.52;100.00;102871.72;5103625;28;20462;-61
2023/10/15 07:42:11;;;;;;;13.40;8.48;;;;;;;19.80;100.00;102860.84;5114601;28;20024;-62
2023/10/15 07:44:36;;;;;;;10.75;8.60;;;;;;;19.71;100.00;102808.50;5114246;28;20024;-62
2023/10/15 07:47:04;;;;;;;11.02;8.20;;;;;;;20.01;100.00;102810.47;5113942;28;20027;-61
2023/10/15 07:49:31;;;;;;;13.65;8.30;;;;;;;19.94;100.00;102767.56;5113709;28;20031;-62
2023/10/15 07:51:57;;;;;;;14.55;8.48;;;;;;;19.22;100.00;102709.69;5112897;28;20030;-61
2023/10/15 07:54:22;;;;;;;16.15;9.13;;;;;;;19.14;100.00;102719.28;5112739;28;20115;-62
2023/10/15 07:56:48;;;;;;;12.52;9.32;;;;;;;18.16;100.00;102689.19;5114039;28;20035;-62
2023/10/15 07:59:14;;;;;;;12.23;9.18;;;;;;;18.54;100.00;102754.78;5113958;28;20525;-61
2023/10/15 08:01:40;;;;;;;16.20;9.32;;;;;;;18.57;100.00;102801.09;5113402;28;20031;-62
2023/10/15 08:04:06;;;;;;;13.55;10.15;;;;;;;18.34;100.00;102798.88;5113269;28;20254;-65
2023/10/15 08:06:34;;;;;;;11.60;9.70;;;;;;;18.65;100.00;102867.13;5112461;28;20027;-61
2023/10/15 08:08:59;;;;;;;13.57;10.10;;;;;;;17.81;100.00;102811.56;5113536;27;20024;-62
2023/10/15 08:11:24;;;;;;;16.85;10.00;;;;;;;18.01;100.00;102873.97;5113704;27;20119;-62
2023/10/15 08:13:50;;;;;;;11.23;9.77;;;;;;;18.01;100.00;102928.06;5112078;28;20031;-62
2023/10/15 08:16:18;;;;;;;16.13;9.95;;;;;;;18.38;100.00;102998.06;5111946;28;20412;-62
2023/10/15 08:18:45;;;;;;;17.73;10.25;;;;;;;18.37;100.00;103267.75;5113041;28;20035;-62
2023/10/15 08:21:11;;;;;;;17.23;9.95;;;;;;;18.76;100.00;103313.00;5113563;28;20027;-62
2023/10/15 08:23:38;;;;;;;16.48;9.85;;;;;;;19.38;100.00;103333.97;5113043;28;20032;-61
2023/10/15 08:26:08;;;;;;;15.35;10.48;;;;;;;19.97;100.00;103266.09;5113496;28;20039;-62
2023/10/15 08:28:33;;;;;;;13.95;10.30;;;;;;;19.99;100.00;102907.81;5113372;28;20506;-62
2023/10/15 08:30:59;;;;;;;15.75;10.00;;;;;;;20.01;100.00;102822.53;5113016;28;20107;-61
2023/10/15 08:33:25;;;;;;;15.07;10.07;;;;;;;19.57;100.00;102743.41;5112958;28;20497;-62
2023/10/15 08:35:50;;;;;;;13.73;9.82;;;;;;;20.05;100.00;102762.16;5113317;28;20023;-62
2023/10/15 08:38:16;;;;;;;17.63;10.60;;;;;;;19.29;100.00;102672.56;5112644;27;20051;-62
2023/10/15 08:40:45;;;;;;;15.10;10.10;;;;;;;19.78;100.00;102709.38;5112668;28;20423;-62
2023/10/15 08:43:20;;;;;;;16.52;10.05;;;;;;;20.77;100.00;102736.31;5113028;28;20501;-62
2023/10/15 08:45:46;;;;;;;14.52;10.23;;;;;;;21.11;100.00;102641.41;5112895;28;20052;-62
2023/10/15 08:48:12;;;;;;;17.38;10.65;;;;;;;19.84;100.00;102492.31;5113002;28;20037;-62
2023/10/15 08:50:37;;;;;;;13.15;9.80;;;;;;;20.44;100.00;102513.94;5112452;27;20028;-62
2023/10/15 08:53:09;;;;;;;15.13;9.77;;;;;;;20.77;100.00;102437.13;5111312;28;20038;-62
2023/10/15 08:55:38;;;;;;;14.80;9.60;;;;;;;21.37;100.00;102426.59;5112509;28;20031;-62
2023/10/15 08:58:07;;;;;;;11.43;8.38;;;;;;;21.58;100.00;102374.94;5112587;28;20459;-62
2023/10/15 09:00:33;;;;;;;13.45;9.10;;;;;;;20.74;100.00;102200.16;5112100;28;20032;-61
2023/10/15 09:03:03;;;;;;;15.02;8.38;;;;;;;21.33;100.00;102228.28;5112515;28;20038;-62
2023/10/15 09:05:40;;;;;;;31.52;10.32;;;;;;;20.69;100.00;102146.91;5112904;28;20510;-69
2023/10/15 09:08:07;;;;;;;14.30;9.55;;;;;;;21.32;100.00;102187.75;5113021;28;20051;-72
2023/10/15 09:10:40;;;;;;;16.95;9.48;;;;;;;21.29;100.00;102139.53;5113263;28;20027;-71
2023/10/15 09:13:14;;;;;;;22.17;11.63;;;;;;;22.14;100.00;102124.09;5113381;28;20069;-70
2023/10/15 09:15:43;;;;;;;16.27;10.93;;;;;;;21.05;100.00;101985.22;5111957;28;20032;-70
2023/10/15 09:18:11;;;;;;;16.92;8.75;;;;;;;21.02;100.00;102047.41;5113009;28;20028;-71
2023/10/15 09:20:42;;;;;;;19.38;9.48;;;;;;;21.38;100.00;102056.34;5112474;28;20031;-70
2023/10/15 09:23:09;;;;;;;14.98;9.68;;;;;;;20.98;100.00;101981.13;5110512;28;20031;-71
2023/10/15 09:25:35;;;;;;;13.00;9.10;;;;;;;22.36;100.00;102056.63;5111591;28;20485;-69
2023/10/15 09:28:01;;;;;;;15.43;9.35;;;;;;;22.15;100.00;101974.59;5110551;28;20028;-71
2023/10/15 09:30:30;;;;;;;20.10;9.68;;;;;;;22.26;100.00;101952.47;5112321;28;20031;-69
2023/10/15 09:32:57;;;;;;;15.48;10.10;;;;;;;21.37;100.00;101881.22;5111816;28;20027;-69
2023/10/15 09:35:23;;;;;;;13.68;9.63;;;;;;;21.41;100.00;101827.59;5110685;28;20143;-69
2023/10/15 09:37:49;;;;;;;14.30;7.95;;;;;;;21.83;100.00;101799.81;5111309;28;20028;-69
2023/10/15 09:40:19;;;;;;;10.95;7.38;;;;;;;22.59;100.00;101806.63;5110367;28;20042;-68
2023/10/15 09:42:49;;;;;;;14.90;8.20;;;;;;;21.89;100.00;101746.94;5111625;28;20030;-70
2023/10/15 09:45:18;;;;;;;11.10;6.97;;;;;;;22.08;100.00;101727.00;5109927;28;20039;-67
2023/10/15 09:47:49;;;;;;;14.05;7.97;;;;;;;21.82;100.00;101626.38;5111664;28;20031;-73
2023/10/15 09:50:25;;;;;;;13.20;8.05;;;;;;;21.58;100.00;101581.72;5107270;28;20093;-73
2023/10/15 09:52:56;;;;;;;16.67;7.18;;;;;;;22.15;100.00;101576.31;5111850;28;20035;-73
2023/10/15 09:55:29;;;;;;;12.10;6.82;;;;;;;22.71;100.00;101596.78;5112213;28;20055;-73
2023/10/15 09:57:58;;;;;;;13.48;6.88;;;;;;;22.78;100.00;101496.16;5112012;28;20040;-72
2023/10/15 10:01:28;;;;;;;11.00;6.10;;;;;;;21.34;100.00;101454.31;5111557;28;20485;-72
2023/10/15 10:03:31;;;;;;;12.50;6.57;;;;;;;22.18;100.00;101482.88;5106519;28;20444;-72
2023/10/15 10:06:17;;;;;;;12.73;6.65;;;;;;;21.71;100.00;101426.63;5111688;28;20040;-74
2023/10/15 10:08:56;;;;;;;11.35;5.90;;;;;;;22.04;100.00;101443.91;5111083;28;20680;-72
2023/10/15 10:11:34;;;;;;;11.45;6.32;;;;;;;20.98;100.00;101357.75;5110323;28;20027;-75
2023/10/15 10:14:33;;;;;;;12.43;5.97;;;;;;;21.71;100.00;101431.81;5111493;28;20035;-72
2023/10/15 10:17:00;;;;;;;9.93;5.95;;;;;;;21.83;100.00;101451.94;5111363;28;20031;-75
2023/10/15 10:19:27;;;;;;;13.90;6.05;;;;;;;21.73;100.00;101349.69;5111314;28;20131;-74
2023/10/15 10:21:53;;;;;;;11.63;6.05;;;;;;;21.93;100.00;101386.59;5109889;28;20066;-71
2023/10/15 10:24:19;;;;;;;14.07;6.05;;;;;;;22.17;100.00;101317.94;5111274;28;20036;-75
2023/10/15 10:26:55;;;;;;;10.88;5.95;;;;;;;22.99;100.00;101257.09;5109683;28;20034;-72
2023/10/15 10:29:26;;;;;;;16.13;5.53;;;;;;;23.72;100.00;101224.94;5110388;28;20736;-72
2023/10/15 10:31:54;;;;;;;14.53;5.37;;;;;;;23.75;100.00;101145.97;5111549;28;20115;-73
2023/10/15 10:34:33;;;;;;;12.70;5.80;;;;;;;23.15;100.00;101054.56;5110909;28;20032;-72
2023/10/15 10:36:58;;;;;;;11.68;6.03;;;;;;;22.80;100.00;101042.97;5111397;28;20028;-72
2023/10/15 10:39:25;;;;;;;13.32;4.93;;;;;;;23.69;100.00;101069.25;5110919;28;20516;-72
2023/10/15 10:41:59;;;;;;;10.57;5.13;;;;;;;23.62;100.00;101003.06;5111090;28;20047;-72
2023/10/15 10:44:24;;;;;;;14.77;5.50;;;;;;;23.74;100.00;101012.66;5111326;28;20036;-72
2023/10/15 10:46:53;;;;;;;11.05;5.20;;;;;;;24.35;100.00;100993.78;5109506;28;20055;-72
2023/10/15 10:49:29;;;;;;;13.63;5.15;;;;;;;24.19;100.00;100935.97;5111167;28;20031;-72
2023/10/15 10:52:15;;;;;;;11.32;4.85;;;;;;;24.37;100.00;100848.91;5109328;28;20039;-73
2023/10/15 10:54:41;;;;;;;11.57;5.05;;;;;;;24.58;100.00;100849.94;5109783;28;20035;-72
2023/10/15 10:57:07;;;;;;;10.38;4.90;;;;;;;25.15;100.00;100886.56;5108073;28;20035;-72
2023/10/15 10:59:34;;;;;;;14.38;5.18;;;;;;;24.20;100.00;100857.06;5110776;28;20043;-70
2023/10/15 11:02:00;;;;;;;10.18;4.63;;;;;;;24.56;100.00;100831.03;5117649;28;20028;-72
2023/10/15 11:04:26;;;;;;;11.90;5.25;;;;;;;24.83;100.00;100815.22;5117142;27;20055;-73
2023/10/15 11:06:51;;;;;;;10.95;5.70;;;;;;;24.67;100.00;100708.00;5116753;28;20031;-74
2023/10/15 11:09:20;;;;;;;10.35;5.70;;;;;;;25.33;100.00;100705.50;5116777;27;20028;-74
2023/10/15 11:11:48;;;;;;;11.35;5.15;;;;;;;25.20;100.00;100696.13;5117326;28;20118;-82
2023/10/15 11:14:18;;;;;;;12.02;4.97;;;;;;;25.19;100.00;100640.66;5118544;27;20027;-73
2023/10/15 11:16:45;;;;;;;9.30;4.93;;;;;;;25.31;100.00;100668.34;5118211;27;20043;-73
2023/10/15 11:19:18;;;;;;;9.07;5.15;;;;;;;25.07;100.00;100586.09;5117437;27;20116;-73
2023/10/15 11:21:44;;;;;;;10.38;4.70;;;;;;;25.67;100.00;100660.25;5117641;27;20027;-73
2023/10/15 11:24:11;;;;;;;14.25;5.32;;;;;;;25.36;100.00;100589.84;5116256;28;20035;-73
2023/10/15 11:26:43;;;;;;;12.50;4.85;;;;;;;25.36;100.00;100541.19;5117401;27;20069;-73
2023/10/15 11:29:10;;;;;;;13.93;5.38;;;;;;;25.73;100.00;100537.28;5116492;27;20032;-73
2023/10/15 11:31:37;;;;;;;14.38;6.05;;;;;;;26.03;100.00;100525.31;5117905;27;20084;-73
2023/10/15 11:34:03;;;;;;;10.90;5.75;;;;;;;25.99;100.00;100480.41;5117815;27;20409;-73
2023/10/15 11:36:35;;;;;;;16.20;5.93;;;;;;;25.56;100.00;100410.22;5117671;27;20080;-72
2023/10/15 11:39:08;;;;;;;15.73;5.20;;;;;;;26.83;100.00;100438.34;5117859;27;20122;-73
2023/10/15 11:41:34;;;;;;;10.73;4.70;;;;;;;25.91;100.00;100414.25;5116926;27;20027;-72
2023/10/15 11:44:04;;;;;;;8.52;4.95;;;;;;;25.86;100.00;100335.63;5112545;28;20031;-73
2023/10/15 11:46:30;;;;;;;12.15;4.82;;;;;;;25.77;100.00;100351.06;5114762;27;20040;-73
2023/10/15 11:49:00;;;;;;;97.65;13.75;;;;;;;26.05;100.00;100367.78;5115447;27;20080;-73